Time;durP1;ratioP1;P1;durP2;ratioP2;P2;SDS_P1;SDS_P2;PMS_P1;PMS_P2;Temp;Humidity;BMP_temperature;BMP_pressure;BME280_temperature;BME280_humidity;BME280_pressure;Samples;Min_cycle;Max_cycle;Signal;HPM_P1;HPM_P2
2021/12/06 00:01:13;;;;;;;26.20;22.33;;;;;;;0.99;100.00;101124.44;5010434;28;20022;-57
2021/12/06 00:03:50;;;;;;;25.77;23.00;;;;;;;1.00;100.00;101128.75;5008797;28;20034;-58
2021/12/06 00:06:17;;;;;;;28.30;23.67;;;;;;;1.00;100.00;101123.66;5010524;28;20375;-58
2021/12/06 00:08:43;;;;;;;31.80;26.40;;;;;;;1.00;100.00;101128.75;5010182;28;20037;-58
2021/12/06 00:11:10;;;;;;;32.50;27.30;;;;;;;1.03;100.00;101134.97;5010304;28;20021;-56
2021/12/06 00:13:38;;;;;;;32.53;26.23;;;;;;;1.07;100.00;101141.22;5010191;28;20042;-58
2021/12/06 00:16:08;;;;;;;29.47;25.57;;;;;;;1.06;100.00;101142.88;5010136;28;20481;-58
2021/12/06 00:18:34;;;;;;;29.47;25.00;;;;;;;1.07;100.00;101142.09;5010200;28;20022;-57
2021/12/06 00:21:00;;;;;;;27.77;24.77;;;;;;;1.05;100.00;101137.66;5009965;28;20458;-56
2021/12/06 00:23:27;;;;;;;31.07;26.27;;;;;;;1.05;100.00;101140.19;5010250;28;20065;-58
2021/12/06 00:25:53;;;;;;;31.23;26.00;;;;;;;1.05;100.00;101147.84;5010240;28;20030;-58
2021/12/06 00:28:19;;;;;;;29.53;25.33;;;;;;;1.05;100.00;101150.41;5009868;28;20037;-56
2021/12/06 00:30:44;;;;;;;30.73;25.47;;;;;;;1.05;100.00;101156.41;5009896;28;20036;-58
2021/12/06 00:33:09;;;;;;;29.57;25.93;;;;;;;1.05;100.00;101158.06;5009913;28;20092;-57
2021/12/06 00:35:35;;;;;;;29.87;25.93;;;;;;;1.06;100.00;101165.84;5009776;28;20025;-57
2021/12/06 00:38:00;;;;;;;28.93;25.33;;;;;;;1.10;100.00;101161.00;5009921;28;20028;-57
2021/12/06 00:40:33;;;;;;;32.27;27.07;;;;;;;1.11;100.00;101171.31;5008899;28;20053;-57
2021/12/06 00:42:58;;;;;;;34.63;28.27;;;;;;;1.13;100.00;101167.22;5010021;28;20030;-59
2021/12/06 00:45:24;;;;;;;35.37;28.27;;;;;;;1.13;100.00;101167.22;5009828;28;20129;-57
2021/12/06 00:47:50;;;;;;;34.97;27.17;;;;;;;1.13;100.00;101173.97;5009361;28;20038;-58
2021/12/06 00:50:16;;;;;;;34.80;29.20;;;;;;;1.14;100.00;101176.66;5009644;28;20114;-58
2021/12/06 00:52:42;;;;;;;32.83;28.33;;;;;;;1.15;100.00;101180.97;5009578;28;20041;-57
2021/12/06 00:55:09;;;;;;;36.83;30.33;;;;;;;1.17;100.00;101184.53;5009580;28;20478;-58
2021/12/06 00:57:35;;;;;;;34.67;29.30;;;;;;;1.19;100.00;101187.19;5009644;28;20040;-57
2021/12/06 01:00:00;;;;;;;35.97;29.63;;;;;;;1.22;100.00;101194.22;5009667;28;20022;-57
2021/12/06 01:02:26;;;;;;;34.00;28.60;;;;;;;1.25;100.00;101202.09;5009596;28;20026;-59
2021/12/06 01:04:51;;;;;;;31.70;28.27;;;;;;;1.25;100.00;101205.56;5009655;28;20466;-57
2021/12/06 01:07:17;;;;;;;34.43;28.57;;;;;;;1.27;100.00;101205.66;5009771;28;20068;-57
2021/12/06 01:09:43;;;;;;;33.23;29.63;;;;;;;1.28;100.00;101204.88;5007177;28;20375;-59
2021/12/06 01:12:09;;;;;;;33.90;29.33;;;;;;;1.28;100.00;101216.00;5009600;28;20357;-58
2021/12/06 01:14:35;;;;;;;39.73;30.80;;;;;;;1.29;100.00;101219.44;5009824;28;20034;-58
2021/12/06 01:17:00;;;;;;;35.93;31.17;;;;;;;1.30;100.00;101222.09;5009355;28;20034;-59
2021/12/06 01:19:29;;;;;;;38.77;31.73;;;;;;;1.33;100.00;101221.47;5009363;28;20085;-58
2021/12/06 01:24:41;;;;;;;34.17;30.30;;;;;;;1.34;100.00;101228.34;5009272;28;20522;-57
2021/12/06 01:32:14;;;;;;;38.37;31.23;;;;;;;1.35;100.00;101214.78;5009548;28;20100;-57
2021/12/06 01:40:07;;;;;;;36.90;30.70;;;;;;;1.36;100.00;101226.78;5009266;28;20029;-57
2021/12/06 01:42:32;;;;;;;36.17;30.80;;;;;;;1.36;100.00;101237.00;5009635;28;20467;-58
2021/12/06 01:44:58;;;;;;;36.63;30.93;;;;;;;1.36;100.00;101237.00;5009432;28;20036;-58
2021/12/06 01:47:29;;;;;;;38.57;31.43;;;;;;;1.36;100.00;101241.22;5009313;28;20026;-58
2021/12/06 01:49:58;;;;;;;39.23;31.40;;;;;;;1.36;100.00;101241.22;5008964;28;20041;-57
2021/12/06 01:52:30;;;;;;;40.30;33.43;;;;;;;1.36;100.00;101247.22;5012818;28;20032;-58
2021/12/06 01:54:56;;;;;;;36.47;30.50;;;;;;;1.37;100.00;101246.44;5012768;28;20037;-58
2021/12/06 01:57:23;;;;;;;35.77;31.23;;;;;;;1.38;100.00;101247.34;5012438;28;20065;-58
2021/12/06 01:59:49;;;;;;;42.50;32.43;;;;;;;1.38;100.00;101244.78;5012513;28;20034;-58
2021/12/06 02:02:15;;;;;;;40.57;32.33;;;;;;;1.38;100.00;101252.44;5012516;28;20036;-58
2021/12/06 02:04:42;;;;;;;36.37;31.53;;;;;;;1.38;100.00;101248.25;5012246;28;20033;-56
2021/12/06 02:07:12;;;;;;;37.93;32.13;;;;;;;1.38;100.00;101240.56;5012416;28;20029;-59
2021/12/06 02:09:37;;;;;;;37.87;30.57;;;;;;;1.38;100.00;101253.34;5012220;28;20386;-57
2021/12/06 02:12:04;;;;;;;42.87;32.07;;;;;;;1.40;100.00;101249.22;5012322;28;20029;-58
2021/12/06 02:17:29;;;;;;;35.00;28.80;;;;;;;1.41;100.00;101245.91;4989777;28;20041;-58
2021/12/06 02:20:05;;;;;;;38.75;30.55;;;;;;;1.41;100.00;101255.22;4989447;28;20053;-58
2021/12/06 02:22:33;;;;;;;36.83;31.17;;;;;;;1.42;100.00;101262.13;4989726;28;20108;-58
2021/12/06 02:24:59;;;;;;;36.33;31.33;;;;;;;1.44;100.00;101260.56;4989773;28;20490;-58
2021/12/06 02:27:28;;;;;;;34.57;30.30;;;;;;;1.44;100.00;101261.47;4989634;28;20035;-57
2021/12/06 02:29:56;;;;;;;37.73;30.53;;;;;;;1.43;100.00;101262.25;4989544;28;20038;-59
2021/12/06 02:32:22;;;;;;;38.17;29.73;;;;;;;1.44;100.00;101265.66;4989504;28;20722;-57
2021/12/06 02:34:51;;;;;;;39.00;31.73;;;;;;;1.46;100.00;101268.38;4989642;28;20050;-57
2021/12/06 02:37:21;;;;;;;34.97;29.73;;;;;;;1.46;100.00;101270.94;4984816;28;20037;-58
2021/12/06 02:39:47;;;;;;;35.13;28.07;;;;;;;1.46;100.00;101268.38;4989518;28;20030;-57
2021/12/06 02:42:15;;;;;;;32.93;28.77;;;;;;;1.46;100.00;101276.91;4989277;28;20023;-58
2021/12/06 02:44:42;;;;;;;36.70;29.30;;;;;;;1.47;100.00;101277.81;4982919;28;20030;-57
2021/12/06 02:47:08;;;;;;;39.33;29.90;;;;;;;1.48;100.00;101287.22;4989327;28;20034;-58
2021/12/06 02:49:33;;;;;;;34.80;30.40;;;;;;;1.48;100.00;101287.22;4993117;28;20512;-58
2021/12/06 02:51:59;;;;;;;35.57;31.27;;;;;;;1.46;100.00;101283.69;4989250;28;20077;-58
2021/12/06 02:54:26;;;;;;;37.27;30.97;;;;;;;1.46;100.00;101293.91;5005960;28;20034;-58
2021/12/06 02:56:53;;;;;;;35.13;29.30;;;;;;;1.45;100.00;101290.47;5011523;28;20389;-58
2021/12/06 02:59:22;;;;;;;36.80;31.23;;;;;;;1.44;100.00;101292.13;5011501;28;20022;-56
2021/12/06 03:01:53;;;;;;;36.17;30.57;;;;;;;1.46;100.00;101299.03;5010934;28;20363;-58
2021/12/06 03:04:19;;;;;;;39.30;32.10;;;;;;;1.46;100.00;101299.03;5011399;28;20363;-57
2021/12/06 03:06:47;;;;;;;40.43;32.50;;;;;;;1.46;100.00;101288.81;5011769;28;20032;-57
2021/12/06 03:09:14;;;;;;;45.53;34.50;;;;;;;1.46;100.00;101293.91;5010895;28;20196;-58
2021/12/06 03:11:44;;;;;;;41.83;32.03;;;;;;;1.48;100.00;101302.56;5011236;28;20030;-58
2021/12/06 03:14:13;;;;;;;41.20;32.37;;;;;;;1.49;100.00;101296.69;5011306;28;20021;-57
2021/12/06 03:16:39;;;;;;;42.80;32.30;;;;;;;1.49;100.00;101294.13;5011185;28;20030;-57
2021/12/06 03:19:06;;;;;;;39.47;33.83;;;;;;;1.49;100.00;101304.34;5010992;28;20080;-57
2021/12/06 03:21:32;;;;;;;39.63;32.40;;;;;;;1.49;100.00;101305.25;5011188;28;20017;-57
2021/12/06 03:23:58;;;;;;;39.57;32.23;;;;;;;1.48;100.00;101303.47;5011138;28;20119;-58
2021/12/06 03:26:25;;;;;;;41.57;32.97;;;;;;;1.49;100.00;101304.34;5011103;28;20186;-59
2021/12/06 03:28:51;;;;;;;40.47;32.83;;;;;;;1.49;100.00;101305.25;5010634;28;20058;-57
2021/12/06 03:31:17;;;;;;;39.33;32.50;;;;;;;1.49;100.00;101306.91;5010692;28;20454;-57
2021/12/06 03:33:46;;;;;;;41.87;33.37;;;;;;;1.49;100.00;101307.81;5010744;28;20053;-57
2021/12/06 03:36:14;;;;;;;41.30;33.40;;;;;;;1.49;100.00;101301.81;5010874;28;20024;-57
2021/12/06 03:38:40;;;;;;;45.57;34.20;;;;;;;1.50;100.00;101308.69;5010893;28;20549;-58
2021/12/06 03:41:08;;;;;;;43.03;33.70;;;;;;;1.48;100.00;101305.13;5010893;28;20112;-57
2021/12/06 03:43:35;;;;;;;40.53;34.03;;;;;;;1.48;100.00;101308.56;5008876;28;20026;-58
2021/12/06 03:46:02;;;;;;;38.03;30.63;;;;;;;1.49;100.00;101312.03;5010497;28;20875;-58
2021/12/06 03:48:27;;;;;;;40.93;32.53;;;;;;;1.48;100.00;101313.69;5009141;28;20025;-57
2021/12/06 03:50:53;;;;;;;38.53;32.53;;;;;;;1.47;100.00;101311.00;5010533;28;20109;-58
2021/12/06 03:53:18;;;;;;;38.63;32.03;;;;;;;1.46;100.00;101319.47;5010445;28;20030;-57
2021/12/06 03:55:44;;;;;;;40.43;32.10;;;;;;;1.45;100.00;101318.56;5010385;28;20025;-58
2021/12/06 03:58:09;;;;;;;41.63;31.97;;;;;;;1.44;100.00;101314.22;5010358;28;20021;-57
2021/12/06 04:00:35;;;;;;;44.07;32.97;;;;;;;1.44;100.00;101312.56;5010241;28;20096;-58
2021/12/06 04:03:00;;;;;;;41.77;32.57;;;;;;;1.44;100.00;101309.09;5010112;28;20484;-57
2021/12/06 04:05:25;;;;;;;44.77;31.73;;;;;;;1.43;100.00;101313.34;5010101;28;20048;-58
2021/12/06 04:07:51;;;;;;;43.17;35.07;;;;;;;1.43;100.00;101315.00;5010089;28;20041;-58
2021/12/06 04:10:17;;;;;;;47.93;35.43;;;;;;;1.44;100.00;101314.22;5010264;28;20029;-58
2021/12/06 04:12:42;;;;;;;43.27;34.53;;;;;;;1.43;100.00;101317.53;5010079;28;20057;-59
2021/12/06 04:15:09;;;;;;;41.00;33.00;;;;;;;1.43;100.00;101322.66;5009788;28;20030;-58
2021/12/06 04:17:36;;;;;;;39.20;32.30;;;;;;;1.41;100.00;101324.19;5010076;28;20018;-57
2021/12/06 04:20:07;;;;;;;43.03;33.67;;;;;;;1.41;100.00;101326.75;5009830;28;20061;-58
2021/12/06 04:22:32;;;;;;;43.75;32.92;;;;;;;1.40;100.00;101327.53;5010181;28;20026;-57
2021/12/06 04:25:01;;;;;;;44.53;34.97;;;;;;;1.40;100.00;101327.53;5008374;28;20533;-57
2021/12/06 04:27:27;;;;;;;41.20;32.73;;;;;;;1.40;100.00;101328.41;5009049;28;20490;-59
2021/12/06 04:29:52;;;;;;;46.63;34.27;;;;;;;1.37;100.00;101330.72;5009938;28;20513;-58
2021/12/06 04:32:19;;;;;;;43.87;33.83;;;;;;;1.35;100.00;101323.75;5009987;28;20057;-58
2021/12/06 04:34:44;;;;;;;41.60;32.87;;;;;;;1.30;100.00;101318.25;5009682;28;20108;-58
2021/12/06 04:37:11;;;;;;;43.83;34.27;;;;;;;1.25;100.00;101319.56;5009473;28;20112;-57
2021/12/06 04:39:37;;;;;;;45.93;34.30;;;;;;;1.22;100.00;101324.44;5009915;28;20084;-59
2021/12/06 04:42:04;;;;;;;42.03;33.23;;;;;;;1.17;100.00;101327.50;5009753;28;20057;-58
2021/12/06 04:44:29;;;;;;;40.40;30.87;;;;;;;1.13;100.00;101328.06;5009692;28;20029;-58
2021/12/06 04:46:56;;;;;;;38.83;29.90;;;;;;;1.07;100.00;101330.13;5009277;28;20022;-57
2021/12/06 04:49:24;;;;;;;39.53;30.60;;;;;;;1.01;100.00;101325.41;5009692;28;20359;-58
2021/12/06 04:51:52;;;;;;;40.67;33.13;;;;;;;0.98;100.00;101326.84;5009697;28;20104;-57
2021/12/06 04:54:22;;;;;;;41.00;32.73;;;;;;;0.92;100.00;101330.69;5009622;28;20022;-57
2021/12/06 04:56:51;;;;;;;40.57;31.37;;;;;;;0.89;100.00;101337.22;5009306;28;20257;-57
2021/12/06 04:59:26;;;;;;;43.47;31.83;;;;;;;0.85;100.00;101333.53;5009404;28;20083;-59
2021/12/06 05:01:54;;;;;;;40.53;31.53;;;;;;;0.81;100.00;101339.19;5008368;28;20021;-58
2021/12/06 05:04:24;;;;;;;36.77;29.87;;;;;;;0.76;100.00;101337.88;5009271;28;20032;-57
2021/12/06 05:06:54;;;;;;;37.50;28.97;;;;;;;0.69;100.00;101350.19;5009466;28;20069;-58
2021/12/06 05:09:25;;;;;;;34.30;27.57;;;;;;;0.64;100.00;101348.91;5009296;28;20037;-56
2021/12/06 05:11:51;;;;;;;33.20;26.95;;;;;;;0.62;100.00;101353.00;5009147;28;20029;-58
2021/12/06 05:14:17;;;;;;;35.20;28.13;;;;;;;0.56;100.00;101345.72;5009295;28;20030;-58
2021/12/06 05:16:43;;;;;;;36.97;29.37;;;;;;;0.53;100.00;101354.78;5009643;28;20022;-58
2021/12/06 05:19:08;;;;;;;36.07;28.40;;;;;;;0.49;100.00;101355.34;5009160;28;20104;-57
2021/12/06 05:21:34;;;;;;;34.30;26.77;;;;;;;0.43;100.00;101359.13;5009492;28;20087;-58
2021/12/06 05:24:01;;;;;;;32.00;27.10;;;;;;;0.36;100.00;101356.84;5009148;28;20556;-58
2021/12/06 05:26:26;;;;;;;35.07;27.63;;;;;;;0.30;100.00;101366.56;5011625;28;20034;-57
2021/12/06 05:28:56;;;;;;;39.20;28.33;;;;;;;0.24;100.00;101366.94;5013287;28;20030;-57
2021/12/06 05:31:23;;;;;;;35.57;28.67;;;;;;;0.19;100.00;101369.13;5013170;28;20030;-56
2021/12/06 05:33:56;;;;;;;36.63;29.37;;;;;;;0.15;100.00;101371.28;5009112;28;20034;-58
2021/12/06 05:36:22;;;;;;;40.07;29.93;;;;;;;0.10;100.00;101363.25;5013297;28;20037;-57
2021/12/06 05:38:53;;;;;;;36.13;28.23;;;;;;;0.01;100.00;101367.59;5013029;28;20033;-57
2021/12/06 05:41:19;;;;;;;35.33;28.88;;;;;;;-0.02;100.00;101365.69;5012215;28;20033;-57
2021/12/06 05:43:45;;;;;;;36.37;27.73;;;;;;;-0.08;100.00;101363.53;5012896;28;20050;-58
2021/12/06 05:46:11;;;;;;;35.77;28.40;;;;;;;-0.12;100.00;101369.13;5013040;28;20394;-56
2021/12/06 05:48:36;;;;;;;37.03;29.53;;;;;;;-0.14;100.00;101368.09;5012579;28;20053;-58
2021/12/06 05:51:02;;;;;;;39.60;29.27;;;;;;;-0.18;100.00;101360.97;5012649;28;20053;-57
2021/12/06 05:53:28;;;;;;;34.90;27.87;;;;;;;-0.19;100.00;101359.16;5012539;28;20048;-58
2021/12/06 05:55:53;;;;;;;36.03;29.07;;;;;;;-0.21;100.00;101358.13;5012696;28;20064;-58
2021/12/06 05:58:22;;;;;;;33.27;27.53;;;;;;;-0.23;100.00;101364.78;5012445;28;20115;-58
2021/12/06 06:00:47;;;;;;;37.83;29.27;;;;;;;-0.28;100.00;101369.47;5006513;28;20111;-57
2021/12/06 06:03:13;;;;;;;38.77;29.43;;;;;;;-0.32;100.00;101375.97;5012474;28;20057;-58
2021/12/06 06:05:39;;;;;;;37.83;29.13;;;;;;;-0.37;100.00;101384.88;5012441;28;20052;-56
2021/12/06 06:08:06;;;;;;;36.13;30.13;;;;;;;-0.41;100.00;101380.25;5012413;28;20030;-57
2021/12/06 06:10:32;;;;;;;34.77;28.87;;;;;;;-0.46;100.00;101384.09;5012003;28;20034;-57
2021/12/06 06:13:02;;;;;;;37.90;29.60;;;;;;;-0.49;100.00;101392.38;5012290;28;20033;-57
2021/12/06 06:15:29;;;;;;;32.75;27.50;;;;;;;-0.50;100.00;101398.19;5012271;28;20021;-58
2021/12/06 06:17:55;;;;;;;41.37;29.13;;;;;;;-0.51;100.00;101396.44;5012335;28;20026;-58
2021/12/06 06:20:44;;;;;;;37.73;29.87;;;;;;;-0.51;100.00;101399.88;5011920;28;20042;-57
2021/12/06 06:23:09;;;;;;;35.07;27.50;;;;;;;-0.50;100.00;101400.75;5012555;28;20076;-57
2021/12/06 06:25:35;;;;;;;37.17;28.53;;;;;;;-0.49;100.00;101400.88;5011929;28;20308;-58
2021/12/06 06:28:02;;;;;;;40.53;30.47;;;;;;;-0.45;100.00;101406.25;5012006;28;20492;-57
2021/12/06 06:30:28;;;;;;;37.03;29.87;;;;;;;-0.44;100.00;101405.47;5011739;28;20034;-57
2021/12/06 06:32:53;;;;;;;42.77;31.97;;;;;;;-0.41;100.00;101405.75;5011995;28;20026;-58
2021/12/06 06:35:20;;;;;;;39.57;30.90;;;;;;;-0.38;100.00;101408.56;5011693;28;20449;-58
2021/12/06 06:37:46;;;;;;;43.83;31.37;;;;;;;-0.37;100.00;101410.34;5011634;28;20026;-58
2021/12/06 06:40:12;;;;;;;41.57;30.87;;;;;;;-0.33;100.00;101417.50;5011634;28;20612;-57
2021/12/06 06:42:38;;;;;;;39.90;30.53;;;;;;;-0.31;100.00;101410.88;5012281;28;20100;-57
2021/12/06 06:45:04;;;;;;;112.77;58.27;;;;;;;-0.29;100.00;101409.34;5011807;28;20034;-57
2021/12/06 06:47:30;;;;;;;91.17;51.53;;;;;;;-0.26;100.00;101407.06;5011744;28;20029;-57
2021/12/06 06:49:55;;;;;;;67.53;42.30;;;;;;;-0.21;100.00;101414.19;5011889;28;20355;-56
2021/12/06 06:52:21;;;;;;;59.80;39.53;;;;;;;-0.18;100.00;101406.84;5012021;28;20036;-58
2021/12/06 06:54:46;;;;;;;65.13;38.57;;;;;;;-0.18;100.00;101417.03;5011920;28;20057;-57
2021/12/06 06:57:12;;;;;;;85.10;36.33;;;;;;;-0.20;100.00;101408.34;5011688;28;20026;-59
2021/12/06 06:59:38;;;;;;;99.30;37.10;;;;;;;-0.21;100.00;101414.19;5011888;28;20084;-58
2021/12/06 07:02:04;;;;;;;56.47;36.67;;;;;;;-0.20;100.00;101413.44;5011071;28;20030;-58
2021/12/06 07:04:29;;;;;;;62.00;38.83;;;;;;;-0.14;100.00;101419.03;5011402;28;20038;-58
2021/12/06 07:06:55;;;;;;;54.70;38.93;;;;;;;-0.11;100.00;101418.44;5010965;28;20034;-57
2021/12/06 07:09:20;;;;;;;57.07;39.20;;;;;;;-0.08;100.00;101418.69;5011350;28;20029;-58
2021/12/06 07:11:46;;;;;;;79.73;41.23;;;;;;;-0.08;100.00;101422.13;5010387;28;20018;-57
2021/12/06 07:14:15;;;;;;;71.73;42.37;;;;;;;-0.06;100.00;101427.34;5011056;28;20028;-56
2021/12/06 07:16:42;;;;;;;70.83;43.37;;;;;;;-0.05;100.00;101424.03;5010073;28;20034;-54
2021/12/06 07:19:08;;;;;;;63.97;42.27;;;;;;;-0.02;100.00;101425.19;5009547;28;20518;-58
2021/12/06 07:21:34;;;;;;;72.10;44.10;;;;;;;0.02;100.00;101431.44;5010673;28;20113;-56
2021/12/06 07:24:00;;;;;;;67.63;43.93;;;;;;;0.06;100.00;101430.03;5010049;28;20029;-58
2021/12/06 07:26:25;;;;;;;66.60;44.20;;;;;;;0.08;100.00;101436.16;5010169;28;20057;-57
2021/12/06 07:28:55;;;;;;;71.93;45.87;;;;;;;0.11;100.00;101439.84;5010300;28;20080;-58
2021/12/06 07:31:22;;;;;;;116.40;46.70;;;;;;;0.16;100.00;101435.16;5004783;28;20091;-58
2021/12/06 07:33:48;;;;;;;75.10;44.73;;;;;;;0.19;100.00;101437.97;5006982;28;20026;-58
2021/12/06 07:36:14;;;;;;;67.40;43.27;;;;;;;0.22;100.00;101448.41;5006274;28;20026;-57
2021/12/06 07:38:41;;;;;;;71.33;43.87;;;;;;;0.25;100.00;101446.88;5010062;28;20037;-57
2021/12/06 07:41:09;;;;;;;76.23;46.47;;;;;;;0.26;100.00;101448.66;5009917;28;20489;-58
2021/12/06 07:43:35;;;;;;;71.73;47.87;;;;;;;0.30;100.00;101455.81;5006742;28;20395;-57
2021/12/06 07:46:01;;;;;;;61.80;42.47;;;;;;;0.31;100.00;101455.03;5008562;28;20101;-57
2021/12/06 07:48:27;;;;;;;66.43;44.03;;;;;;;0.34;100.00;101447.66;5009177;28;20072;-57
2021/12/06 07:50:53;;;;;;;74.63;44.93;;;;;;;0.37;100.00;101447.00;5008428;28;20026;-58
2021/12/06 07:53:18;;;;;;;68.43;44.73;;;;;;;0.38;100.00;101442.03;5007934;28;20022;-57
2021/12/06 07:55:44;;;;;;;66.90;45.07;;;;;;;0.38;100.00;101436.94;5008501;28;20468;-58
2021/12/06 07:58:09;;;;;;;74.17;46.47;;;;;;;0.39;100.00;101438.75;5006308;28;20026;-56
2021/12/06 08:00:39;;;;;;;71.10;45.30;;;;;;;0.41;100.00;101431.22;5008039;28;20049;-57
2021/12/06 08:03:07;;;;;;;72.20;46.30;;;;;;;0.45;100.00;101435.81;5006077;28;20041;-58
2021/12/06 08:05:33;;;;;;;77.03;48.57;;;;;;;0.47;100.00;101431.69;5005126;28;20029;-58
2021/12/06 08:08:15;;;;;;;76.47;48.57;;;;;;;0.48;100.00;101428.41;5008900;28;20027;-57
2021/12/06 08:10:46;;;;;;;80.00;49.93;;;;;;;0.49;100.00;101422.53;5007561;28;20030;-58
2021/12/06 08:13:14;;;;;;;94.63;54.28;;;;;;;0.51;100.00;101418.44;5010035;28;20501;-57
2021/12/06 08:15:40;;;;;;;101.03;55.90;;;;;;;0.53;100.00;101421.13;5010295;28;20030;-56
2021/12/06 08:18:06;;;;;;;108.00;58.20;;;;;;;0.56;100.00;101422.25;5009096;28;20040;-58
2021/12/06 08:20:33;;;;;;;106.87;56.10;;;;;;;0.58;100.00;101424.94;5009530;28;20041;-58
2021/12/06 08:22:58;;;;;;;106.30;55.60;;;;;;;0.59;100.00;101417.41;5009695;28;20254;-58
2021/12/06 08:25:24;;;;;;;106.23;56.47;;;;;;;0.62;100.00;101421.88;5009768;28;20032;-57
2021/12/06 08:27:51;;;;;;;104.50;56.90;;;;;;;0.65;100.00;101431.47;5010270;28;20054;-58
2021/12/06 08:30:22;;;;;;;121.50;59.67;;;;;;;0.67;100.00;101423.16;5010145;28;20021;-57
2021/12/06 08:32:53;;;;;;;126.53;59.05;;;;;;;0.68;100.00;101422.41;5009714;28;20026;-58
2021/12/06 08:35:19;;;;;;;105.75;56.35;;;;;;;0.70;100.00;101425.94;5009357;28;20076;-58
2021/12/06 08:37:45;;;;;;;112.30;58.40;;;;;;;0.72;100.00;101428.59;5009311;28;20178;-57
2021/12/06 08:40:12;;;;;;;115.53;60.20;;;;;;;0.72;100.00;101433.72;5009082;28;20029;-57
2021/12/06 08:42:37;;;;;;;120.33;61.13;;;;;;;0.75;100.00;101434.00;5009905;28;20026;-57
2021/12/06 08:45:04;;;;;;;120.97;58.97;;;;;;;0.77;100.00;101446.88;5009223;28;20022;-56
2021/12/06 08:47:29;;;;;;;109.33;56.70;;;;;;;0.77;100.00;101457.97;5009581;28;20385;-58
2021/12/06 08:49:55;;;;;;;116.03;58.53;;;;;;;0.78;100.00;101458.84;5008953;28;20030;-57
2021/12/06 08:52:22;;;;;;;115.70;61.23;;;;;;;0.80;100.00;101458.22;5009862;28;20032;-57
2021/12/06 08:54:48;;;;;;;123.53;59.23;;;;;;;0.83;100.00;101466.13;5008700;28;20030;-58
2021/12/06 08:57:14;;;;;;;129.70;60.67;;;;;;;0.85;100.00;101470.47;5008286;28;20084;-58
2021/12/06 08:59:39;;;;;;;123.03;60.27;;;;;;;0.86;100.00;101460.38;5008852;28;20026;-58
2021/12/06 09:02:05;;;;;;;122.63;61.07;;;;;;;0.87;100.00;101464.72;5011951;28;20029;-57
2021/12/06 09:04:37;;;;;;;127.63;60.63;;;;;;;0.90;100.00;101464.09;5012281;28;20029;-58
2021/12/06 09:07:10;;;;;;;146.00;64.13;;;;;;;0.91;100.00;101466.75;5013168;28;20028;-56
2021/12/06 09:09:36;;;;;;;139.70;63.97;;;;;;;0.92;100.00;101468.53;5013427;28;20038;-58
2021/12/06 09:12:02;;;;;;;136.07;65.10;;;;;;;0.93;100.00;101467.78;5013304;28;20037;-58
2021/12/06 09:14:28;;;;;;;143.40;65.10;;;;;;;0.93;100.00;101466.88;5013528;28;20121;-56
2021/12/06 09:16:54;;;;;;;146.37;66.63;;;;;;;0.97;100.00;101470.56;5013050;28;20040;-58
2021/12/06 09:19:19;;;;;;;140.40;64.33;;;;;;;0.99;100.00;101466.50;5013089;28;20100;-57
2021/12/06 09:21:46;;;;;;;149.17;64.67;;;;;;;0.99;100.00;101471.59;5012835;28;20053;-57
2021/12/06 09:24:18;;;;;;;140.47;64.37;;;;;;;1.00;100.00;101465.72;5011949;28;20030;-58
2021/12/06 09:26:45;;;;;;;136.43;61.27;;;;;;;1.01;100.00;101470.94;5013111;28;20044;-58
2021/12/06 09:29:11;;;;;;;142.60;62.67;;;;;;;1.03;100.00;101465.94;5012793;28;20112;-58
2021/12/06 09:31:37;;;;;;;150.30;64.43;;;;;;;1.04;100.00;101468.63;5012751;28;20136;-58
2021/12/06 09:34:02;;;;;;;135.47;63.60;;;;;;;1.05;100.00;101472.97;5014766;28;20758;-57
2021/12/06 09:36:28;;;;;;;140.77;62.50;;;;;;;1.03;100.00;101471.94;5012203;28;20284;-57
2021/12/06 09:38:54;;;;;;;142.87;63.50;;;;;;;1.06;100.00;101469.63;5012313;28;20401;-57
2021/12/06 09:41:25;;;;;;;137.77;65.13;;;;;;;1.10;100.00;101468.22;5011804;28;20117;-58
2021/12/06 09:43:52;;;;;;;141.27;63.83;;;;;;;1.13;100.00;101467.59;5009421;28;20488;-57
2021/12/06 09:46:19;;;;;;;139.70;62.73;;;;;;;1.15;100.00;101468.63;5011615;28;20087;-58
2021/12/06 09:48:46;;;;;;;132.83;59.77;;;;;;;1.16;100.00;101466.19;5011717;28;20053;-57
2021/12/06 09:51:21;;;;;;;141.07;62.30;;;;;;;1.17;100.00;101467.09;5011222;28;20033;-58
2021/12/06 09:53:48;;;;;;;139.00;61.57;;;;;;;1.18;100.00;101472.31;5009739;28;20363;-57
2021/12/06 09:56:17;;;;;;;131.73;60.27;;;;;;;1.21;100.00;101470.78;5010146;28;20033;-58
2021/12/06 09:58:43;;;;;;;145.33;62.13;;;;;;;1.19;100.00;101471.53;5011937;28;20434;-59
2021/12/06 10:01:14;;;;;;;130.10;58.93;;;;;;;1.19;100.00;101470.63;5011434;28;20029;-58
2021/12/06 10:03:39;;;;;;;132.13;60.10;;;;;;;1.22;100.00;101480.22;5011581;28;20037;-58
2021/12/06 10:19:32;;;;;;;;;;;;;;;1.24;100.00;101455.69;5007229;28;20076;-58
2021/12/06 10:21:57;;;;;;;96.57;45.13;;;;;;;1.22;100.00;101444.47;5010591;28;19921;-58
2021/12/06 10:24:27;;;;;;;100.60;46.87;;;;;;;1.13;100.00;101445.53;5010161;28;20498;-57
2021/12/06 10:27:14;;;;;;;100.50;46.27;;;;;;;1.11;100.00;101434.28;5008602;28;20025;-58
2021/12/06 10:29:47;;;;;;;111.70;47.67;;;;;;;1.15;100.00;101423.53;5010468;28;20033;-57
2021/12/06 10:32:24;;;;;;;106.37;48.87;;;;;;;1.16;100.00;101430.44;5010928;28;20076;-58
2021/12/06 10:34:54;;;;;;;113.30;47.57;;;;;;;1.16;100.00;101427.88;5010722;28;20432;-59
2021/12/06 10:37:28;;;;;;;124.17;49.43;;;;;;;1.19;100.00;101425.56;5011014;28;20025;-58
2021/12/06 10:39:54;;;;;;;125.07;49.73;;;;;;;1.22;100.00;101424.03;5010198;28;20057;-59
2021/12/06 10:42:39;;;;;;;129.20;47.83;;;;;;;1.24;100.00;101422.50;5010666;28;20496;-57
2021/12/06 10:45:09;;;;;;;131.00;46.93;;;;;;;1.25;100.00;101431.94;5009514;28;20022;-56
2021/12/06 10:47:35;;;;;;;126.07;45.03;;;;;;;1.25;100.00;101417.50;5011155;28;20357;-58
2021/12/06 10:50:26;;;;;;;128.43;45.10;;;;;;;1.26;100.00;101409.06;5007642;28;20406;-57
2021/12/06 10:52:56;;;;;;;;;;;;;;;1.21;100.00;101404.38;5009026;28;20566;-57
2021/12/06 10:55:26;;;;;;;100.77;38.70;;;;;;;1.21;100.00;101399.28;5010326;28;19916;-58
2021/12/06 10:57:54;;;;;;;107.57;42.40;;;;;;;1.17;100.00;101395.59;5010662;28;20029;-58
2021/12/06 11:00:37;;;;;;;87.17;39.20;;;;;;;1.18;100.00;101389.69;5010341;28;20426;-57
2021/12/06 11:03:04;;;;;;;89.77;39.90;;;;;;;1.21;100.00;101361.84;5010579;28;20425;-57
2021/12/06 11:05:32;;;;;;;89.47;38.43;;;;;;;1.25;100.00;101360.41;5009710;28;20026;-58
2021/12/06 11:08:09;;;;;;;85.40;40.40;;;;;;;1.25;100.00;101353.66;5010936;28;20053;-58
2021/12/06 11:10:50;;;;;;;75.13;38.70;;;;;;;1.28;100.00;101356.44;5011386;28;20029;-58
2021/12/06 11:13:17;;;;;;;79.15;36.88;;;;;;;1.30;100.00;101360.00;5011019;28;20057;-58
2021/12/06 11:16:22;;;;;;;63.07;34.80;;;;;;;1.25;100.00;101358.78;5009888;28;20113;-57
2021/12/06 11:18:50;;;;;;;57.33;31.87;;;;;;;1.22;100.00;101366.19;4988885;28;20038;-59
2021/12/06 11:21:38;;;;;;;54.57;29.93;;;;;;;1.17;100.00;101357.28;4989689;28;20070;-58
2021/12/06 11:24:18;;;;;;;55.03;31.03;;;;;;;1.13;100.00;101358.72;4945470;28;20039;-58
2021/12/06 11:27:01;;;;;;;50.00;28.53;;;;;;;0.98;100.00;101350.72;4949805;29;20039;-58
2021/12/06 11:29:47;;;;;;;44.90;26.17;;;;;;;0.86;100.00;101335.34;4949262;28;20094;-58
2021/12/06 11:32:15;;;;;;;46.87;26.77;;;;;;;0.75;100.00;101328.47;4946933;29;20712;-57
2021/12/06 11:34:45;;;;;;;48.87;27.00;;;;;;;0.77;100.00;101334.59;4947739;28;20114;-58
2021/12/06 11:37:13;;;;;;;51.10;28.30;;;;;;;0.75;100.00;101338.66;4949467;29;20042;-58
2021/12/06 11:39:39;;;;;;;52.40;27.80;;;;;;;0.75;100.00;101337.03;4949524;28;20539;-58